createdAt,value
2023-05-14T00:00:29.458Z,102148.75
2023-05-14T00:02:56.443Z,102146.41
2023-05-14T00:05:23.444Z,102137.63
2023-05-14T00:07:50.372Z,102142.66
2023-05-14T00:10:19.152Z,102139.16
2023-05-14T00:12:46.044Z,102144.34
2023-05-14T00:15:12.779Z,102144.03
2023-05-14T00:17:39.605Z,102150.31
2023-05-14T00:20:07.369Z,102143.13
2023-05-14T00:22:34.505Z,102142.53
2023-05-14T00:25:01.273Z,102135.41
2023-05-14T00:27:27.958Z,102147.91
2023-05-14T00:29:54.739Z,102146.19
2023-05-14T00:32:21.518Z,102150.94
2023-05-14T00:34:48.311Z,102142.47
2023-05-14T00:37:15.033Z,102135.56
2023-05-14T00:39:41.740Z,102147.50
2023-05-14T00:42:08.514Z,102141.50
2023-05-14T00:44:35.918Z,102143.91
2023-05-14T00:47:02.729Z,102143.38
2023-05-14T00:49:29.536Z,102140.31
2023-05-14T00:51:59.029Z,102145.97
2023-05-14T00:54:26.142Z,102133.59
2023-05-14T00:56:52.899Z,102140.09
2023-05-14T00:59:19.634Z,102135.75
2023-05-14T01:01:46.395Z,102132.94
2023-05-14T01:04:13.095Z,102129.47
2023-05-14T01:07:08.915Z,102134.72
2023-05-14T01:10:03.098Z,102129.06
2023-05-14T01:12:51.394Z,102130.03
2023-05-14T01:15:21.625Z,102131.00
2023-05-14T01:18:08.637Z,102127.50
2023-05-14T01:20:36.096Z,102126.72
2023-05-14T01:23:03.331Z,102130.84
2023-05-14T01:25:30.913Z,102121.78
2023-05-14T01:28:09.334Z,102136.22
2023-05-14T01:30:54.674Z,102131.22
2023-05-14T01:33:21.973Z,102132.19
2023-05-14T01:35:49.064Z,102129.13
2023-05-14T01:38:18.312Z,102123.47
2023-05-14T01:40:45.817Z,102124.69
2023-05-14T01:43:12.641Z,102118.69
2023-05-14T01:45:39.500Z,102118.59
2023-05-14T01:48:06.572Z,102116.94
2023-05-14T01:50:33.448Z,102110.72
2023-05-14T01:53:00.260Z,102121.09
2023-05-14T01:55:27.011Z,102125.41
2023-05-14T01:57:53.936Z,102116.06
2023-05-14T02:00:22.306Z,102120.09
2023-05-14T02:02:49.186Z,102120.44
2023-05-14T02:05:15.964Z,102109.06
2023-05-14T02:07:42.669Z,102116.78
2023-05-14T02:10:09.951Z,102120.50
2023-05-14T02:12:36.816Z,102116.03
2023-05-14T02:15:04.131Z,102124.41
2023-05-14T02:17:30.932Z,102110.00
2023-05-14T02:19:57.736Z,102124.13
2023-05-14T02:22:24.475Z,102124.06
2023-05-14T02:24:51.588Z,102121.34
2023-05-14T02:27:18.515Z,102121.69
2023-05-14T02:29:45.302Z,102121.47
2023-05-14T02:32:12.015Z,102112.16
2023-05-14T02:34:38.820Z,102119.78
2023-05-14T02:37:05.678Z,102120.63
2023-05-14T02:39:32.443Z,102117.38
2023-05-14T02:41:59.294Z,102120.31
2023-05-14T02:44:26.052Z,102121.22
2023-05-14T02:46:52.879Z,102117.28
2023-05-14T02:49:19.660Z,102118.41
2023-05-14T02:51:46.381Z,102116.19
2023-05-14T02:54:13.181Z,102116.81
2023-05-14T02:56:39.893Z,102112.72
2023-05-14T02:59:06.734Z,102109.38
2023-05-14T03:01:33.979Z,102108.34
2023-05-14T03:04:01.047Z,102099.97
2023-05-14T03:06:27.856Z,102102.25
2023-05-14T03:08:54.616Z,102076.94
2023-05-14T03:11:21.821Z,102075.72
2023-05-14T03:13:48.636Z,102078.44
2023-05-14T03:16:15.676Z,102064.63
2023-05-14T03:18:42.507Z,102066.59
2023-05-14T03:21:09.312Z,102058.19
2023-05-14T03:23:36.275Z,102070.56
2023-05-14T03:26:03.860Z,102057.47
2023-05-14T03:28:30.841Z,102059.06
2023-05-14T03:30:57.661Z,102072.03
2023-05-14T03:33:24.557Z,102070.56
2023-05-14T03:35:51.937Z,102074.03
2023-05-14T03:38:18.692Z,102080.78
2023-05-14T03:40:45.637Z,102064.69
2023-05-14T03:43:12.399Z,102070.38
2023-05-14T03:45:39.277Z,102070.78
2023-05-14T03:48:06.546Z,102061.19
2023-05-14T03:50:33.435Z,102052.19
2023-05-14T03:53:00.270Z,102065.59
2023-05-14T03:55:27.044Z,102063.81
2023-05-14T03:57:53.772Z,102056.16
2023-05-14T04:00:21.563Z,102055.69
2023-05-14T04:02:48.561Z,102047.84
2023-05-14T04:05:15.442Z,102048.56
2023-05-14T04:07:42.181Z,102054.25
2023-05-14T04:10:09.406Z,102051.41
2023-05-14T04:12:36.176Z,102051.91
2023-05-14T04:15:03.032Z,102048.53
2023-05-14T04:17:29.853Z,102035.63
2023-05-14T04:19:56.638Z,102051.06
2023-05-14T04:22:23.402Z,102036.28
2023-05-14T04:24:50.255Z,102044.84
2023-05-14T04:27:21.252Z,102035.88
2023-05-14T04:29:48.956Z,102038.88
2023-05-14T04:32:15.784Z,102032.47
2023-05-14T04:34:42.536Z,102039.66
2023-05-14T04:37:09.295Z,102024.66
2023-05-14T04:39:36.628Z,102025.91
2023-05-14T04:42:03.450Z,102036.00
2023-05-14T04:44:30.233Z,102031.34
2023-05-14T04:46:57.252Z,102031.47
2023-05-14T04:49:24.039Z,102025.53
2023-05-14T04:51:50.812Z,102034.31
2023-05-14T04:54:17.571Z,102032.06
2023-05-14T04:56:44.491Z,102025.50
2023-05-14T04:59:11.340Z,102024.72
2023-05-14T05:01:38.249Z,102020.38
2023-05-14T05:04:05.210Z,102020.50
2023-05-14T05:06:32.516Z,102017.06
2023-05-14T05:09:01.890Z,102021.63
2023-05-14T05:11:28.934Z,102013.19
2023-05-14T05:13:55.679Z,102007.19
2023-05-14T05:16:22.935Z,102012.34
2023-05-14T05:18:49.906Z,102001.59
2023-05-14T05:21:16.739Z,102009.41
2023-05-14T05:23:43.485Z,102011.03
2023-05-14T05:26:10.284Z,102009.59
2023-05-14T05:28:37.024Z,102004.06
2023-05-14T05:31:03.843Z,102013.56
2023-05-14T05:33:30.801Z,102000.81
2023-05-14T05:35:57.527Z,102009.91
2023-05-14T05:38:24.310Z,102007.81
2023-05-14T05:40:51.227Z,102010.88
2023-05-14T05:43:18.116Z,101999.09
2023-05-14T05:45:46.096Z,102002.31
2023-05-14T05:48:12.852Z,102000.31
2023-05-14T05:50:39.597Z,102003.56
2023-05-14T05:53:06.383Z,102002.53
2023-05-14T05:55:33.160Z,101997.59
2023-05-14T05:57:59.966Z,101998.09
2023-05-14T06:00:26.962Z,102004.91
2023-05-14T06:02:53.996Z,102007.66
2023-05-14T06:05:20.916Z,101999.59
2023-05-14T06:07:47.761Z,102004.28
2023-05-14T06:10:14.525Z,102005.31
2023-05-14T06:12:41.324Z,102010.38
2023-05-14T06:15:08.520Z,102005.44
2023-05-14T06:17:35.356Z,101992.00
2023-05-14T06:20:02.107Z,102003.06
2023-05-14T06:22:28.861Z,101997.75
2023-05-14T06:24:55.570Z,101991.13
2023-05-14T06:27:22.338Z,102000.66
2023-05-14T06:29:49.058Z,101992.44
2023-05-14T06:32:17.614Z,101987.78
2023-05-14T06:34:44.459Z,101989.66
2023-05-14T06:37:11.212Z,101983.75
2023-05-14T06:39:38.142Z,101986.84
2023-05-14T06:42:05.286Z,101988.06
2023-05-14T06:44:32.045Z,102000.28
2023-05-14T06:46:58.757Z,101986.69
2023-05-14T06:49:25.520Z,101988.09
2023-05-14T06:51:52.375Z,101994.00
2023-05-14T06:54:20.597Z,101983.09
2023-05-14T06:56:47.797Z,101982.16
2023-05-14T06:59:14.523Z,101986.19
2023-05-14T07:01:41.303Z,101991.75
2023-05-14T07:04:08.156Z,101993.50
2023-05-14T07:06:34.990Z,101976.34
2023-05-14T07:09:01.981Z,101988.78
2023-05-14T07:11:28.764Z,101978.19
2023-05-14T07:13:55.636Z,101986.09
2023-05-14T07:16:22.403Z,101979.63
2023-05-14T07:18:49.332Z,101976.34
2023-05-14T07:21:16.464Z,101984.75
2023-05-14T07:23:43.194Z,101977.41
2023-05-14T07:26:09.977Z,101977.63
2023-05-14T07:28:36.738Z,101978.91
2023-05-14T07:31:09.056Z,101968.03
2023-05-14T07:33:36.598Z,101978.03
2023-05-14T07:36:03.500Z,101956.38
2023-05-14T07:38:30.310Z,101947.72
2023-05-14T07:40:57.139Z,101961.53
2023-05-14T07:43:23.937Z,101959.66
2023-05-14T07:45:50.699Z,101948.28
2023-05-14T07:48:17.511Z,101929.78
2023-05-14T07:50:44.379Z,101953.19
2023-05-14T07:53:11.137Z,101947.63
2023-05-14T07:55:38.002Z,101925.59
2023-05-14T07:58:04.800Z,101935.22
2023-05-14T08:00:31.596Z,101942.28
2023-05-14T08:02:58.534Z,101942.28
2023-05-14T08:05:26.631Z,101939.84
2023-05-14T08:07:53.391Z,101940.22
2023-05-14T08:10:20.275Z,101957.78
2023-05-14T08:12:47.169Z,101930.31
2023-05-14T08:15:14.098Z,101945.16
2023-05-14T08:17:41.138Z,101926.38
2023-05-14T08:20:09.185Z,101946.00
2023-05-14T08:22:36.056Z,101932.69
2023-05-14T08:25:03.922Z,101916.19
2023-05-14T08:27:30.792Z,101936.16
2023-05-14T08:29:57.753Z,101929.78
2023-05-14T08:32:24.531Z,101926.25
2023-05-14T08:34:51.989Z,101931.94
2023-05-14T08:37:18.917Z,101918.41
2023-05-14T08:39:45.677Z,101927.66
2023-05-14T08:42:13.086Z,101925.13
2023-05-14T08:44:45.804Z,101921.09
2023-05-14T08:47:12.874Z,101923.28
2023-05-14T08:49:43.082Z,101924.06
2023-05-14T08:52:09.992Z,101906.66
2023-05-14T08:54:36.796Z,101908.38
2023-05-14T08:57:04.607Z,101916.56
2023-05-14T08:59:31.474Z,101906.66
2023-05-14T09:02:01.564Z,101899.81
2023-05-14T09:04:29.697Z,101877.38
2023-05-14T09:06:56.562Z,101895.31
2023-05-14T09:09:23.503Z,101896.56
2023-05-14T09:11:55.713Z,101909.34
2023-05-14T09:14:23.358Z,101888.75
2023-05-14T09:16:50.776Z,101867.66
2023-05-14T09:19:19.492Z,101889.88
2023-05-14T09:21:46.708Z,101890.25
2023-05-14T09:24:21.331Z,101878.19
2023-05-14T09:26:57.070Z,101874.41
2023-05-14T09:29:27.462Z,101883.50
2023-05-14T09:31:54.909Z,101888.38
2023-05-14T09:34:25.907Z,101879.53
2023-05-14T09:37:03.064Z,101869.94
2023-05-14T09:39:29.961Z,101835.31
2023-05-14T09:41:57.170Z,101848.34
2023-05-14T09:44:24.013Z,101853.03
2023-05-14T09:46:51.268Z,101858.03
2023-05-14T09:49:18.213Z,101848.69
2023-05-14T09:51:45.021Z,101831.72
2023-05-14T09:54:12.078Z,101844.41
2023-05-14T09:56:39.716Z,101846.31
2023-05-14T09:59:06.540Z,101843.28
2023-05-14T10:01:33.628Z,101839.69
2023-05-14T10:04:00.625Z,101830.44
2023-05-14T10:06:28.689Z,101837.47
2023-05-14T10:08:56.844Z,101828.38
2023-05-14T10:11:28.057Z,101833.41
2023-05-14T10:14:39.985Z,101822.00
2023-05-14T10:17:06.929Z,101813.13
2023-05-14T10:19:35.244Z,101816.59
2023-05-14T10:22:07.219Z,101816.97
2023-05-14T10:24:34.094Z,101801.16
2023-05-14T10:27:01.456Z,101806.38
2023-05-14T10:29:34.989Z,101807.41
2023-05-14T10:32:08.645Z,101803.91
2023-05-14T10:34:40.766Z,101810.75
2023-05-14T10:37:10.182Z,101806.59
2023-05-14T10:39:59.189Z,101813.94
2023-05-14T10:42:32.813Z,101785.63
2023-05-14T10:45:07.387Z,101798.44
2023-05-14T10:47:42.610Z,101802.16
2023-05-14T10:50:11.960Z,101799.00
2023-05-14T10:52:38.811Z,101804.19
2023-05-14T10:55:10.359Z,101800.75
2023-05-14T10:57:39.641Z,101794.53
2023-05-14T11:00:09.100Z,101785.94
2023-05-14T11:02:37.301Z,101789.38
2023-05-14T11:05:05.441Z,101800.81
2023-05-14T11:07:36.573Z,101810.75
2023-05-14T11:10:07.531Z,101798.25
2023-05-14T11:12:38.903Z,101802.72
2023-05-14T11:15:09.822Z,101798.06
2023-05-14T11:17:37.193Z,101791.50
2023-05-14T11:20:05.749Z,101805.59
2023-05-14T11:22:32.652Z,101784.97
2023-05-14T11:24:59.405Z,101777.16
2023-05-14T11:27:26.484Z,101768.16
2023-05-14T11:29:53.313Z,101757.97
2023-05-14T11:32:20.385Z,101762.69
2023-05-14T11:34:47.283Z,101754.91
2023-05-14T11:37:15.151Z,101759.31
2023-05-14T11:39:49.701Z,101756.75
2023-05-14T11:42:18.781Z,101750.63
2023-05-14T11:44:52.242Z,101739.69
2023-05-14T11:47:20.335Z,101735.22
2023-05-14T11:49:47.314Z,101747.63
2023-05-14T11:52:14.868Z,101753.59
2023-05-14T11:54:42.720Z,101754.88
2023-05-14T11:57:19.538Z,101748.22
2023-05-14T11:59:46.876Z,101763.00
2023-05-14T12:02:18.424Z,101763.81
2023-05-14T12:04:46.011Z,101752.69
2023-05-14T12:07:15.046Z,101750.31
2023-05-14T12:09:49.967Z,101754.53
2023-05-14T12:12:22.896Z,101770.81
2023-05-14T12:14:50.167Z,101764.84
2023-05-14T12:17:21.005Z,101762.94
2023-05-14T12:19:49.312Z,101746.00
2023-05-14T12:22:18.971Z,101735.19
2023-05-14T12:24:58.702Z,101713.94
2023-05-14T12:27:29.810Z,101712.25
2023-05-14T12:30:19.966Z,101700.34
2023-05-14T12:32:51.735Z,101681.91
2023-05-14T12:35:19.033Z,101693.47
2023-05-14T12:37:45.839Z,101694.25
2023-05-14T12:40:12.717Z,101702.91
2023-05-14T12:42:39.513Z,101718.22
2023-05-14T12:45:08.542Z,101698.97
2023-05-14T12:47:36.522Z,101710.47
2023-05-14T12:50:03.619Z,101704.75
2023-05-14T12:52:37.804Z,101702.09
2023-05-14T12:55:07.626Z,101699.97
2023-05-14T12:57:35.748Z,101703.81
2023-05-14T13:00:06.457Z,101687.47
2023-05-14T13:02:33.352Z,101691.72
2023-05-14T13:05:10.369Z,101685.50
2023-05-14T13:07:37.451Z,101673.72
2023-05-14T13:10:05.940Z,101663.69
2023-05-14T13:12:33.061Z,101684.06
2023-05-14T13:14:59.944Z,101671.84
2023-05-14T13:17:26.902Z,101696.63
2023-05-14T13:19:53.920Z,101670.78
2023-05-14T13:22:20.690Z,101710.81
2023-05-14T13:24:47.463Z,101699.03
2023-05-14T13:27:14.238Z,101682.19
2023-05-14T13:29:41.553Z,101664.09
2023-05-14T13:32:08.507Z,101671.94
2023-05-14T13:34:35.353Z,101684.38
2023-05-14T13:37:02.124Z,101669.00
2023-05-14T13:39:28.821Z,101658.78
2023-05-14T13:41:56.916Z,101638.81
2023-05-14T13:44:24.333Z,101639.75
2023-05-14T13:46:51.269Z,101655.44
2023-05-14T13:49:18.073Z,101619.28
2023-05-14T13:51:44.905Z,101627.28
2023-05-14T13:54:11.748Z,101642.53
2023-05-14T13:56:38.558Z,101637.16
2023-05-14T13:59:06.055Z,101640.00
2023-05-14T14:01:32.936Z,101645.44
2023-05-14T14:03:59.738Z,101644.81
2023-05-14T14:06:27.577Z,101649.25
2023-05-14T14:08:54.437Z,101649.28
2023-05-14T14:11:21.235Z,101634.19
2023-05-14T14:13:48.101Z,101635.81
2023-05-14T14:16:15.168Z,101627.84
2023-05-14T14:18:43.503Z,101599.38
2023-05-14T14:21:10.600Z,101620.97
2023-05-14T14:23:37.473Z,101598.84
2023-05-14T14:26:04.318Z,101610.75
2023-05-14T14:28:31.401Z,101608.66
2023-05-14T14:30:58.314Z,101597.78
2023-05-14T14:33:25.313Z,101614.19
2023-05-14T14:35:52.079Z,101580.53
2023-05-14T14:38:19.111Z,101595.94
2023-05-14T14:40:46.462Z,101587.13
2023-05-14T14:43:13.296Z,101594.09
2023-05-14T14:45:40.241Z,101602.00
2023-05-14T14:48:28.829Z,101604.91
2023-05-14T14:50:55.953Z,101595.59
2023-05-14T14:53:22.989Z,101594.19
2023-05-14T14:55:50.194Z,101565.59
2023-05-14T14:58:18.266Z,101576.66
2023-05-14T15:00:45.770Z,101581.38
2023-05-14T15:03:12.883Z,101572.34
2023-05-14T15:05:40.123Z,101581.59
2023-05-14T15:08:07.011Z,101570.66
2023-05-14T15:10:37.977Z,101571.72
2023-05-14T15:13:06.031Z,101564.50
2023-05-14T15:15:33.613Z,101561.41
2023-05-14T15:18:00.706Z,101560.38
2023-05-14T15:20:27.606Z,101565.56
2023-05-14T15:22:54.639Z,101552.81
2023-05-14T15:25:21.702Z,101536.19
2023-05-14T15:27:49.004Z,101539.59
2023-05-14T15:30:16.182Z,101526.44
2023-05-14T15:32:43.313Z,101540.44
2023-05-14T15:35:10.111Z,101528.81
2023-05-14T15:37:41.133Z,101522.06
2023-05-14T15:40:09.142Z,101544.31
2023-05-14T15:42:40.173Z,101533.47
2023-05-14T15:45:07.371Z,101517.28
2023-05-14T15:47:34.183Z,101512.81
2023-05-14T15:50:01.244Z,101523.34
2023-05-14T15:52:28.052Z,101528.50
2023-05-14T15:54:56.220Z,101508.16
2023-05-14T15:57:23.476Z,101516.19
2023-05-14T15:59:50.394Z,101520.72
2023-05-14T16:02:17.185Z,101514.13
2023-05-14T16:04:46.655Z,101516.19
2023-05-14T16:07:13.411Z,101529.94
2023-05-14T16:09:40.309Z,101509.16
2023-05-14T16:12:07.802Z,101514.28
2023-05-14T16:14:35.137Z,101510.13
2023-05-14T16:17:02.259Z,101500.41
2023-05-14T16:19:29.207Z,101464.41
2023-05-14T16:21:56.110Z,101492.16
2023-05-14T16:24:22.964Z,101484.38
2023-05-14T16:26:49.836Z,101495.25
2023-05-14T16:29:16.718Z,101479.06
2023-05-14T16:31:43.651Z,101470.06
2023-05-14T16:34:10.434Z,101489.19
2023-05-14T16:36:37.507Z,101478.28
2023-05-14T16:39:08.062Z,101466.13
2023-05-14T16:41:35.901Z,101465.88
2023-05-14T16:44:02.661Z,101473.22
2023-05-14T16:46:30.501Z,101492.91
2023-05-14T16:48:57.360Z,101493.59
2023-05-14T16:51:24.118Z,101472.94
2023-05-14T16:53:51.966Z,101484.53
2023-05-14T16:56:18.979Z,101475.38
2023-05-14T16:58:45.738Z,101473.66
2023-05-14T17:01:12.540Z,101481.19
2023-05-14T17:03:39.323Z,101482.22
2023-05-14T17:06:06.627Z,101469.41
2023-05-14T17:08:35.649Z,101460.53
2023-05-14T17:11:05.699Z,101482.25
2023-05-14T17:13:33.195Z,101463.84
2023-05-14T17:16:00.685Z,101468.47
2023-05-14T17:18:27.536Z,101470.44
2023-05-14T17:20:54.309Z,101454.47
2023-05-14T17:23:21.119Z,101464.06
2023-05-14T17:25:47.928Z,101479.09
2023-05-14T17:28:14.876Z,101471.81
2023-05-14T17:30:41.711Z,101466.75
2023-05-14T17:33:08.700Z,101471.03
2023-05-14T17:35:36.543Z,101474.66
2023-05-14T17:38:03.639Z,101486.91
2023-05-14T17:40:30.488Z,101469.81
2023-05-14T17:42:57.286Z,101469.34
2023-05-14T17:45:24.272Z,101470.53
2023-05-14T17:47:51.562Z,101480.91
2023-05-14T17:50:18.973Z,101480.38
2023-05-14T17:52:46.230Z,101479.16
2023-05-14T17:55:13.242Z,101462.31
2023-05-14T17:57:40.254Z,101475.84
2023-05-14T18:00:08.284Z,101467.56
2023-05-14T18:02:35.213Z,101475.56
2023-05-14T18:05:02.913Z,101461.69
2023-05-14T18:07:34.425Z,101467.41
2023-05-14T18:10:01.316Z,101469.66
2023-05-14T18:12:28.125Z,101475.47
2023-05-14T18:14:54.940Z,101483.97
2023-05-14T18:17:21.757Z,101472.16
2023-05-14T18:19:48.557Z,101476.31
2023-05-14T18:22:15.819Z,101464.00
2023-05-14T18:24:44.305Z,101469.50
2023-05-14T18:27:11.183Z,101467.56
2023-05-14T18:29:37.978Z,101470.25
2023-05-14T18:32:05.293Z,101486.16
2023-05-14T18:34:32.095Z,101465.84
2023-05-14T18:36:58.829Z,101465.16
2023-05-14T18:39:25.789Z,101483.34
2023-05-14T18:41:52.833Z,101448.75
2023-05-14T18:44:19.626Z,101495.19
2023-05-14T18:46:46.476Z,101477.63
2023-05-14T18:49:13.311Z,101478.88
2023-05-14T18:51:40.029Z,101474.09
2023-05-14T18:54:06.853Z,101483.41
2023-05-14T18:56:34.006Z,101454.91
2023-05-14T18:59:00.824Z,101463.03
2023-05-14T19:01:28.281Z,101463.72
2023-05-14T19:03:55.359Z,101477.41
2023-05-14T19:06:22.263Z,101459.81
2023-05-14T19:08:49.123Z,101455.56
2023-05-14T19:11:16.381Z,101461.66
2023-05-14T19:13:46.700Z,101458.09
2023-05-14T19:16:13.758Z,101440.69
2023-05-14T19:18:40.672Z,101451.72
2023-05-14T19:21:07.449Z,101465.91
2023-05-14T19:23:34.282Z,101458.41
2023-05-14T19:26:01.307Z,101443.94
2023-05-14T19:28:28.121Z,101465.28
2023-05-14T19:30:54.930Z,101451.22
2023-05-14T19:33:21.702Z,101427.13
2023-05-14T19:35:48.506Z,101434.03
2023-05-14T19:38:15.453Z,101452.72
2023-05-14T19:40:43.666Z,101424.94
2023-05-14T19:43:11.965Z,101446.63
2023-05-14T19:45:39.452Z,101425.91
2023-05-14T19:48:06.898Z,101423.25
2023-05-14T19:50:33.961Z,101424.78
2023-05-14T19:53:01.222Z,101451.28
2023-05-14T19:55:28.044Z,101432.59
2023-05-14T19:57:54.857Z,101425.81
2023-05-14T20:00:22.922Z,101437.28
2023-05-14T20:02:49.827Z,101427.16
2023-05-14T20:05:16.901Z,101421.00
2023-05-14T20:07:43.914Z,101428.75
2023-05-14T20:10:12.588Z,101431.41
2023-05-14T20:12:39.601Z,101432.56
2023-05-14T20:15:06.911Z,101426.06
2023-05-14T20:17:33.829Z,101433.19
2023-05-14T20:20:01.541Z,101435.47
2023-05-14T20:22:28.446Z,101422.66
2023-05-14T20:24:55.807Z,101435.44
2023-05-14T20:27:22.619Z,101435.53
2023-05-14T20:29:51.510Z,101440.31
2023-05-14T20:32:18.361Z,101441.06
2023-05-14T20:34:45.280Z,101430.47
2023-05-14T20:37:12.267Z,101449.97
2023-05-14T20:39:39.180Z,101432.13
2023-05-14T20:42:06.287Z,101441.28
2023-05-14T20:44:33.114Z,101431.47
2023-05-14T20:46:59.969Z,101422.50
2023-05-14T20:49:26.912Z,101414.69
2023-05-14T20:51:53.860Z,101421.59
2023-05-14T20:54:21.004Z,101429.19
2023-05-14T20:56:47.921Z,101430.72
2023-05-14T20:59:14.731Z,101417.31
2023-05-14T21:01:42.784Z,101406.53
2023-05-14T21:04:09.750Z,101414.28
2023-05-14T21:06:36.816Z,101410.31
2023-05-14T21:09:03.660Z,101408.66
2023-05-14T21:11:30.521Z,101415.75
2023-05-14T21:13:57.846Z,101396.44
2023-05-14T21:16:24.764Z,101411.09
2023-05-14T21:18:51.667Z,101404.63
2023-05-14T21:21:21.413Z,101389.59
2023-05-14T21:23:48.294Z,101401.03
2023-05-14T21:26:15.108Z,101387.22
2023-05-14T21:28:42.001Z,101405.19
2023-05-14T21:31:08.833Z,101386.28
2023-05-14T21:33:35.682Z,101383.94
2023-05-14T21:36:02.502Z,101400.53
2023-05-14T21:38:29.476Z,101391.84
2023-05-14T21:40:56.414Z,101375.91
2023-05-14T21:43:23.264Z,101351.47
2023-05-14T21:45:50.040Z,101369.84
2023-05-14T21:48:17.012Z,101338.34
2023-05-14T21:50:43.987Z,101372.63
2023-05-14T21:53:10.786Z,101363.38
2023-05-14T21:55:37.619Z,101367.38
2023-05-14T21:58:04.404Z,101362.94
2023-05-14T22:00:31.903Z,101378.53
2023-05-14T22:02:59.040Z,101378.97
2023-05-14T22:05:26.037Z,101369.88
2023-05-14T22:07:53.388Z,101353.56
2023-05-14T22:10:20.242Z,101349.41
2023-05-14T22:12:47.070Z,101341.25
2023-05-14T22:15:13.857Z,101354.81
2023-05-14T22:17:41.138Z,101348.31
2023-05-14T22:20:10.157Z,101320.13
2023-05-14T22:22:37.030Z,101318.22
2023-05-14T22:25:04.523Z,101351.78
2023-05-14T22:27:31.673Z,101362.84
2023-05-14T22:29:58.823Z,101354.56
2023-05-14T22:32:25.993Z,101350.00
2023-05-14T22:34:52.869Z,101356.47
2023-05-14T22:37:19.693Z,101328.88
2023-05-14T22:39:46.544Z,101342.94
2023-05-14T22:42:13.593Z,101351.38
2023-05-14T22:44:40.486Z,101343.50
2023-05-14T22:47:07.379Z,101357.59
2023-05-14T22:49:34.230Z,101339.22
2023-05-14T22:52:01.397Z,101330.34
2023-05-14T22:54:28.271Z,101329.00
2023-05-14T22:56:55.149Z,101329.97
2023-05-14T22:59:23.688Z,101332.00
2023-05-14T23:01:51.209Z,101325.28
2023-05-14T23:04:18.130Z,101311.00
2023-05-14T23:06:45.004Z,101316.81
2023-05-14T23:09:11.801Z,101298.72
2023-05-14T23:11:38.623Z,101293.16
2023-05-14T23:14:05.579Z,101305.91
2023-05-14T23:16:32.363Z,101308.75
2023-05-14T23:18:59.215Z,101301.56
2023-05-14T23:21:26.205Z,101298.41
2023-05-14T23:23:52.946Z,101283.06
2023-05-14T23:26:19.757Z,101284.44
2023-05-14T23:28:47.530Z,101254.63
2023-05-14T23:31:14.401Z,101285.97
2023-05-14T23:33:41.239Z,101282.66
2023-05-14T23:36:08.477Z,101271.88
2023-05-14T23:38:35.580Z,101272.16
2023-05-14T23:41:02.403Z,101274.66
2023-05-14T23:43:29.300Z,101269.41
2023-05-14T23:45:56.150Z,101233.75
2023-05-14T23:48:23.113Z,101265.63
2023-05-14T23:50:50.076Z,101238.59
2023-05-14T23:53:17.197Z,101249.88
2023-05-14T23:55:43.997Z,101241.44
2023-05-14T23:58:10.742Z,101242.97
